Aplicació Alertes

Dades de l'estació automàtica Port de Barcelona - Bocana Sud

?
?
Resum diari 20:30 TU
Dades diàries de l'estació meteorològica
Ratxa màxima del vent (10 m) 34.6 km/h - 290º 10:45 TU

El tram horari està expressat en Temps Universal (TU). Cal sumar una hora en horari d'hivern i dues en horari d'estiu per passar a l'hora oficial.

Port de Barcelona - Bocana Sud

Metadades estació meteorol´gica
Municipi El Prat de Llobregat
Comarca Baix Llobregat
Altitud 3 m
Data alta 08.04.2015
Estat actual Operativa
Dades de període
Període
TU
VVM (10 m)
km/h
DVM (10 m)
graus
VVX (10 m)
km/h
00:00 - 00:30 15.8 280 20.9
00:30 - 01:00 18.0 287 22.0
01:00 - 01:30 18.4 281 25.2
01:30 - 02:00 14.8 266 20.2
02:00 - 02:30 17.6 270 22.3
02:30 - 03:00 14.4 268 20.9
03:00 - 03:30 17.3 263 20.9
03:30 - 04:00 15.8 280 23.0
04:00 - 04:30 14.8 268 21.6
04:30 - 05:00 16.9 274 21.2
05:00 - 05:30 17.6 280 23.0
05:30 - 06:00 14.4 273 18.7
06:00 - 06:30 14.4 288 18.4
06:30 - 07:00 14.4 278 20.9
07:00 - 07:30 16.2 277 24.8
07:30 - 08:00 20.2 286 29.2
08:00 - 08:30 21.6 289 29.9
08:30 - 09:00 22.0 296 28.8
09:00 - 09:30 24.1 294 33.5
09:30 - 10:00 22.3 289 31.3
10:00 - 10:30 20.5 301 31.7
10:30 - 11:00 21.2 303 34.6
11:00 - 11:30 18.0 304 25.2
11:30 - 12:00 13.7 303 19.1
12:00 - 12:30 14.0 293 20.5
12:30 - 13:00 9.4 299 15.1
13:00 - 13:30 4.0 278 10.4
13:30 - 14:00 3.2 128 13.7
14:00 - 14:30 11.9 196 15.5
14:30 - 15:00 10.8 194 14.8
15:00 - 15:30 11.2 204 15.1
15:30 - 16:00 10.1 227 14.4
16:00 - 16:30 6.5 246 10.1
16:30 - 17:00 5.8 267 7.6
17:00 - 17:30 6.1 278 8.3
17:30 - 18:00 5.8 286 8.3
18:00 - 18:30 6.5 281 7.9
18:30 - 19:00 8.6 264 11.5
19:00 - 19:30 9.7 269 13.7
19:30 - 20:00 8.6 271 13.3
20:00 - 20:30 6.5 283 10.4
20:30 - 21:00 8.6 280 10.8
21:00 - 21:30 (s/d) (s/d) (s/d)

Les dades en taronja només han passat un control de qualitat automàtic. Resta pendent la seva validació definitiva.